ACA12 CYUL-CYYC
Flight info
| Callsign | ACA12 |
|---|---|
| Flight time | N/A |
| Altitude | 34000 |
| Route | DCT KESKA DCT BIPKO DCT IPSAK DCT OMEGI DCT RADEN DCT SPALD DCT LACTO DCT LEATS/N0451F360 DCT ILADA BIRKO6 |
| Aircraft | A321/M-SDE3FGHIRWY/LB1 |
Departure
| Time | 2026-05-05 22:26 |
|---|---|
| Airport | Montreal / Pierre Elliott Trudeau International Airport (CYUL) |
Arrival
| Time | N/A |
|---|---|
| Airport | Calgary International Airport (CYYC) |
| Time | Latitude | Longitude | Altitude | Speed | Heading |
|---|---|---|---|---|---|
| 2026-05-05 21:58 | 45.45975 | -73.75543 | 105 ft | 0 kts | 178° |
| 2026-05-05 22:16 | 45.45985 | -73.75543 | 85 ft | 4 kts | 180° |
| 2026-05-05 22:16 | 45.46012 | -73.75542 | 103 ft | 4 kts | 185° |
| 2026-05-05 22:16 | 45.46039 | -73.75536 | 104 ft | 4 kts | 198° |
| 2026-05-05 22:16 | 45.46061 | -73.75519 | 104 ft | 4 kts | 239° |
| 2026-05-05 22:17 | 45.46065 | -73.75506 | 102 ft | 0 kts | 268° |
| 2026-05-05 22:18 | 45.46064 | -73.75530 | 104 ft | 7 kts | 268° |
| 2026-05-05 22:19 | 45.46061 | -73.75647 | 104 ft | 14 kts | 268° |
| 2026-05-05 22:19 | 45.46127 | -73.75684 | 102 ft | 18 kts | 66° |
| 2026-05-05 22:19 | 45.46137 | -73.75496 | 101 ft | 19 kts | 88° |
| 2026-05-05 22:19 | 45.46144 | -73.75305 | 101 ft | 19 kts | 86° |
| 2026-05-05 22:20 | 45.46148 | -73.75121 | 102 ft | 18 kts | 89° |
| 2026-05-05 22:20 | 45.46152 | -73.74960 | 104 ft | 16 kts | 87° |
| 2026-05-05 22:20 | 45.46159 | -73.74763 | 104 ft | 25 kts | 88° |
| 2026-05-05 22:20 | 45.46142 | -73.74570 | 103 ft | 18 kts | 128° |
| 2026-05-05 22:21 | 45.46130 | -73.74404 | 103 ft | 17 kts | 87° |
| 2026-05-05 22:21 | 45.46137 | -73.74223 | 103 ft | 19 kts | 86° |
| 2026-05-05 22:21 | 45.46160 | -73.74033 | 104 ft | 20 kts | 51° |
| 2026-05-05 22:21 | 45.46267 | -73.73891 | 105 ft | 22 kts | 42° |
| 2026-05-05 22:22 | 45.46383 | -73.73738 | 108 ft | 23 kts | 43° |
| 2026-05-05 22:22 | 45.46506 | -73.73578 | 108 ft | 25 kts | 43° |
| 2026-05-05 22:22 | 45.46636 | -73.73406 | 111 ft | 26 kts | 43° |
| 2026-05-05 22:22 | 45.46775 | -73.73226 | 113 ft | 28 kts | 41° |
| 2026-05-05 22:23 | 45.46921 | -73.73034 | 112 ft | 29 kts | 43° |
| 2026-05-05 22:23 | 45.47076 | -73.72832 | 113 ft | 31 kts | 44° |
| 2026-05-05 22:23 | 45.47228 | -73.72631 | 114 ft | 29 kts | 43° |
| 2026-05-05 22:23 | 45.47381 | -73.72432 | 116 ft | 31 kts | 44° |
| 2026-05-05 22:24 | 45.47527 | -73.72239 | 118 ft | 28 kts | 41° |
| 2026-05-05 22:24 | 45.47671 | -73.72051 | 118 ft | 29 kts | 42° |
| 2026-05-05 22:24 | 45.47774 | -73.71914 | 117 ft | 10 kts | 43° |
| 2026-05-05 22:24 | 45.47811 | -73.71822 | 120 ft | 11 kts | 105° |
| 2026-05-05 22:25 | 45.47765 | -73.71716 | 121 ft | 14 kts | 126° |
| 2026-05-05 22:25 | 45.47709 | -73.71634 | 125 ft | 11 kts | 148° |
| 2026-05-05 22:25 | 45.47665 | -73.71653 | 123 ft | 0 kts | 222° |
| 2026-05-05 22:25 | 45.47656 | -73.71665 | 124 ft | 16 kts | 222° |
| 2026-05-05 22:26 | 45.47523 | -73.71842 | 122 ft | 62 kts | 223° |
| 2026-05-05 22:26 | 45.46846 | -73.72728 | 116 ft | 133 kts | 223° |
| 2026-05-05 22:26 | 45.46067 | -73.73736 | 249 ft | 160 kts | 227° |
| 2026-05-05 22:26 | 45.45260 | -73.74828 | 854 ft | 160 kts | 228° |
| 2026-05-05 22:27 | 45.44494 | -73.75938 | 1545 ft | 154 kts | 228° |
| 2026-05-05 22:27 | 45.43864 | -73.77134 | 2026 ft | 157 kts | 250° |
| 2026-05-05 22:27 | 45.43856 | -73.78210 | 2125 ft | 179 kts | 281° |
| 2026-05-05 22:27 | 45.44857 | -73.80377 | 2322 ft | 212 kts | 301° |
| 2026-05-05 22:28 | 45.45488 | -73.81498 | 2388 ft | 227 kts | 302° |
| 2026-05-05 22:28 | 45.46860 | -73.83980 | 2815 ft | 250 kts | 301° |
| 2026-05-05 22:28 | 45.47914 | -73.85965 | 3560 ft | 252 kts | 301° |
| 2026-05-05 22:28 | 45.48939 | -73.87973 | 4500 ft | 248 kts | 300° |
| 2026-05-05 22:29 | 45.49925 | -73.89968 | 5403 ft | 246 kts | 298° |
| 2026-05-05 22:29 | 45.50889 | -73.91968 | 6305 ft | 244 kts | 296° |
| 2026-05-05 22:29 | 45.51840 | -73.93976 | 7071 ft | 245 kts | 296° |
| 2026-05-05 22:29 | 45.52470 | -73.95323 | 7538 ft | 247 kts | 295° |
| 2026-05-05 22:30 | 45.53426 | -73.97379 | 8286 ft | 250 kts | 294° |
| 2026-05-05 22:30 | 45.54391 | -73.99459 | 9011 ft | 253 kts | 294° |
| 2026-05-05 22:30 | 45.55681 | -74.02243 | 9832 ft | 257 kts | 293° |
| 2026-05-05 22:30 | 45.56696 | -74.04456 | 10002 ft | 276 kts | 293° |
| 2026-05-05 22:31 | 45.57778 | -74.06828 | 10118 ft | 295 kts | 294° |
| 2026-05-05 22:31 | 45.58550 | -74.08514 | 10213 ft | 307 kts | 294° |
| 2026-05-05 22:31 | 45.59726 | -74.11059 | 10622 ft | 314 kts | 295° |
| 2026-05-05 22:31 | 45.60948 | -74.13672 | 11194 ft | 317 kts | 295° |
| 2026-05-05 22:32 | 45.62196 | -74.16288 | 11812 ft | 321 kts | 296° |
| 2026-05-05 22:32 | 45.63509 | -74.18888 | 12436 ft | 324 kts | 296° |
| 2026-05-05 22:32 | 45.64856 | -74.21490 | 13060 ft | 327 kts | 296° |
| 2026-05-05 22:32 | 45.66654 | -74.24957 | 13800 ft | 330 kts | 296° |
| 2026-05-05 22:33 | 45.67578 | -74.26748 | 14143 ft | 332 kts | 296° |
| 2026-05-05 22:33 | 45.68946 | -74.29418 | 14658 ft | 334 kts | 296° |
| 2026-05-05 22:33 | 45.70304 | -74.32081 | 15146 ft | 337 kts | 296° |
| 2026-05-05 22:33 | 45.71570 | -74.34880 | 15629 ft | 332 kts | 287° |
| 2026-05-05 22:34 | 45.72370 | -74.37924 | 16113 ft | 324 kts | 276° |
| 2026-05-05 22:34 | 45.72706 | -74.41089 | 16588 ft | 321 kts | 269° |
| 2026-05-05 22:34 | 45.72921 | -74.44286 | 17076 ft | 324 kts | 269° |
| 2026-05-05 22:34 | 45.73140 | -74.47510 | 17566 ft | 327 kts | 269° |
| 2026-05-05 22:35 | 45.73362 | -74.50762 | 18027 ft | 330 kts | 270° |
| 2026-05-05 22:35 | 45.73587 | -74.54041 | 18451 ft | 332 kts | 269° |
| 2026-05-05 22:35 | 45.73810 | -74.57293 | 18889 ft | 333 kts | 269° |
| 2026-05-05 22:35 | 45.74038 | -74.60600 | 19300 ft | 335 kts | 269° |
| 2026-05-05 22:36 | 45.74269 | -74.63927 | 19714 ft | 337 kts | 269° |
| 2026-05-05 22:36 | 45.74500 | -74.67273 | 20121 ft | 339 kts | 269° |
| 2026-05-05 22:36 | 45.74728 | -74.70641 | 20514 ft | 341 kts | 269° |
| 2026-05-05 22:36 | 45.74956 | -74.74038 | 20885 ft | 343 kts | 269° |
| 2026-05-05 22:37 | 45.75182 | -74.77451 | 21257 ft | 346 kts | 269° |
| 2026-05-05 22:37 | 45.75411 | -74.80887 | 21659 ft | 348 kts | 269° |
| 2026-05-05 22:37 | 45.75639 | -74.84304 | 22039 ft | 350 kts | 269° |
| 2026-05-05 22:37 | 45.76040 | -74.87776 | 22393 ft | 358 kts | 275° |
| 2026-05-05 22:38 | 45.76583 | -74.91264 | 22769 ft | 360 kts | 275° |
| 2026-05-05 22:38 | 45.77127 | -74.94769 | 23223 ft | 361 kts | 275° |
| 2026-05-05 22:38 | 45.77671 | -74.98284 | 23557 ft | 362 kts | 275° |
| 2026-05-05 22:38 | 45.78214 | -75.01811 | 23879 ft | 364 kts | 275° |
| 2026-05-05 22:39 | 45.78756 | -75.05358 | 24210 ft | 364 kts | 275° |
| 2026-05-05 22:39 | 45.79297 | -75.08909 | 24545 ft | 365 kts | 275° |
| 2026-05-05 22:39 | 45.79841 | -75.12469 | 24869 ft | 366 kts | 275° |
| 2026-05-05 22:39 | 45.80385 | -75.16039 | 25186 ft | 368 kts | 275° |
| 2026-05-05 22:40 | 45.80924 | -75.19583 | 25483 ft | 369 kts | 275° |
| 2026-05-05 22:40 | 45.81471 | -75.23178 | 25823 ft | 369 kts | 275° |
| 2026-05-05 22:40 | 45.82016 | -75.26778 | 26147 ft | 370 kts | 275° |
| 2026-05-05 22:40 | 45.82559 | -75.30387 | 26507 ft | 370 kts | 275° |
| 2026-05-05 22:41 | 45.83100 | -75.33988 | 26949 ft | 368 kts | 275° |
| 2026-05-05 22:41 | 45.83638 | -75.37569 | 27305 ft | 368 kts | 275° |
| 2026-05-05 22:41 | 45.84175 | -75.41153 | 27626 ft | 368 kts | 275° |
| 2026-05-05 22:41 | 45.84703 | -75.44687 | 27926 ft | 368 kts | 275° |
| 2026-05-05 22:42 | 45.85242 | -75.48287 | 28179 ft | 369 kts | 275° |
| 2026-05-05 22:42 | 45.85779 | -75.51897 | 28432 ft | 371 kts | 275° |
| 2026-05-05 22:42 | 45.86316 | -75.55517 | 28705 ft | 372 kts | 275° |
| 2026-05-05 22:42 | 45.86854 | -75.59151 | 28967 ft | 373 kts | 275° |
| 2026-05-05 22:43 | 45.87394 | -75.62806 | 29211 ft | 375 kts | 275° |
| 2026-05-05 22:43 | 45.87933 | -75.66464 | 29536 ft | 374 kts | 275° |
| 2026-05-05 22:43 | 45.88472 | -75.70100 | 29957 ft | 371 kts | 274° |
| 2026-05-05 22:43 | 45.89006 | -75.73704 | 30327 ft | 368 kts | 274° |
| 2026-05-05 22:44 | 45.89527 | -75.77239 | 30665 ft | 366 kts | 274° |
| 2026-05-05 22:44 | 45.90047 | -75.80801 | 31008 ft | 364 kts | 274° |
| 2026-05-05 22:44 | 45.90561 | -75.84345 | 31327 ft | 362 kts | 274° |
| 2026-05-05 22:44 | 45.91071 | -75.87875 | 31661 ft | 361 kts | 274° |
| 2026-05-05 22:45 | 45.91579 | -75.91399 | 31973 ft | 359 kts | 274° |
| 2026-05-05 22:45 | 45.92084 | -75.94908 | 32292 ft | 358 kts | 274° |
| 2026-05-05 22:45 | 45.92591 | -75.98406 | 32599 ft | 357 kts | 274° |
| 2026-05-05 22:45 | 45.93315 | -76.01851 | 32903 ft | 366 kts | 284° |
| 2026-05-05 22:46 | 45.94539 | -76.05068 | 33237 ft | 379 kts | 294° |
| 2026-05-05 22:46 | 45.96169 | -76.08093 | 33529 ft | 383 kts | 296° |
| 2026-05-05 22:46 | 45.97815 | -76.11101 | 33663 ft | 382 kts | 296° |
| 2026-05-05 22:47 | 46.01062 | -76.17073 | 33686 ft | 377 kts | 295° |
| 2026-05-05 22:47 | 46.04278 | -76.23023 | 33687 ft | 376 kts | 295° |
| 2026-05-05 22:48 | 46.07488 | -76.28970 | 33686 ft | 376 kts | 295° |
| 2026-05-05 22:48 | 46.10675 | -76.34873 | 33686 ft | 376 kts | 295° |
| 2026-05-05 22:49 | 46.13882 | -76.40817 | 33705 ft | 374 kts | 295° |
| 2026-05-05 22:49 | 46.17064 | -76.46750 | 33727 ft | 374 kts | 295° |
| 2026-05-05 22:50 | 46.20235 | -76.52683 | 33707 ft | 373 kts | 295° |
| 2026-05-05 22:50 | 46.23387 | -76.58576 | 33699 ft | 373 kts | 295° |
| 2026-05-05 22:51 | 46.26561 | -76.64505 | 33702 ft | 373 kts | 295° |
| 2026-05-05 22:51 | 46.29728 | -76.70447 | 33739 ft | 373 kts | 294° |
| 2026-05-05 22:52 | 46.32877 | -76.76371 | 33703 ft | 370 kts | 294° |
| 2026-05-05 22:52 | 46.36006 | -76.82286 | 33700 ft | 370 kts | 294° |
| 2026-05-05 22:53 | 46.39120 | -76.88170 | 33692 ft | 371 kts | 294° |
| 2026-05-05 22:53 | 46.42248 | -76.94092 | 33696 ft | 370 kts | 294° |
| 2026-05-05 22:54 | 46.45385 | -77.00041 | 33711 ft | 371 kts | 294° |
| 2026-05-05 22:54 | 46.48510 | -77.05978 | 33719 ft | 371 kts | 293° |
| 2026-05-05 22:55 | 46.51624 | -77.11909 | 33702 ft | 372 kts | 293° |
| 2026-05-05 22:55 | 46.54751 | -77.17900 | 33700 ft | 372 kts | 293° |
| 2026-05-05 22:56 | 46.57882 | -77.23905 | 33698 ft | 373 kts | 293° |
| 2026-05-05 22:56 | 46.61015 | -77.29907 | 33697 ft | 373 kts | 293° |
| 2026-05-05 22:57 | 46.64146 | -77.35926 | 33698 ft | 373 kts | 293° |
| 2026-05-05 22:57 | 46.67249 | -77.41901 | 33698 ft | 373 kts | 293° |
| 2026-05-05 22:58 | 46.70366 | -77.47933 | 33740 ft | 373 kts | 293° |
| 2026-05-05 22:58 | 46.73488 | -77.53968 | 33715 ft | 373 kts | 293° |
| 2026-05-05 22:59 | 46.76617 | -77.60025 | 33705 ft | 374 kts | 293° |
| 2026-05-05 22:59 | 46.79714 | -77.66049 | 33700 ft | 374 kts | 293° |
| 2026-05-05 23:00 | 46.84397 | -77.75184 | 33702 ft | 375 kts | 294° |
| 2026-05-05 23:00 | 46.87527 | -77.81288 | 33696 ft | 375 kts | 294° |
| 2026-05-05 23:01 | 46.90646 | -77.87402 | 33692 ft | 375 kts | 294° |
| 2026-05-05 23:01 | 46.93743 | -77.93485 | 33687 ft | 375 kts | 294° |
| 2026-05-05 23:02 | 46.96857 | -77.99609 | 33719 ft | 375 kts | 295° |
| 2026-05-05 23:02 | 46.99974 | -78.05761 | 33699 ft | 377 kts | 295° |
| 2026-05-05 23:03 | 47.03112 | -78.11957 | 33676 ft | 380 kts | 295° |
| 2026-05-05 23:03 | 47.06245 | -78.18147 | 33672 ft | 381 kts | 295° |
| 2026-05-05 23:04 | 47.09400 | -78.24406 | 33677 ft | 382 kts | 295° |
| 2026-05-05 23:04 | 47.12560 | -78.30686 | 33676 ft | 383 kts | 295° |
| 2026-05-05 23:05 | 47.15722 | -78.36985 | 33675 ft | 383 kts | 295° |
| 2026-05-05 23:05 | 47.18859 | -78.43262 | 33692 ft | 384 kts | 295° |
| 2026-05-05 23:06 | 47.22023 | -78.49613 | 33686 ft | 386 kts | 296° |
| 2026-05-05 23:06 | 47.25208 | -78.56000 | 33685 ft | 389 kts | 296° |
| 2026-05-05 23:07 | 47.28411 | -78.62455 | 33672 ft | 392 kts | 296° |
| 2026-05-05 23:07 | 47.31617 | -78.68907 | 33675 ft | 394 kts | 296° |
| 2026-05-05 23:08 | 47.34851 | -78.75429 | 33700 ft | 395 kts | 297° |
| 2026-05-05 23:08 | 47.38086 | -78.81994 | 33690 ft | 396 kts | 297° |
| 2026-05-05 23:09 | 47.41331 | -78.88594 | 33689 ft | 398 kts | 297° |
| 2026-05-05 23:09 | 47.44581 | -78.95208 | 33686 ft | 398 kts | 297° |
| 2026-05-05 23:10 | 47.47812 | -79.01799 | 33692 ft | 399 kts | 297° |
| 2026-05-05 23:10 | 47.51062 | -79.08442 | 33697 ft | 399 kts | 297° |
| 2026-05-05 23:11 | 47.54320 | -79.15121 | 33701 ft | 401 kts | 298° |
| 2026-05-05 23:11 | 47.57578 | -79.21831 | 33693 ft | 402 kts | 298° |
| 2026-05-05 23:12 | 47.60846 | -79.28572 | 33692 ft | 403 kts | 298° |
| 2026-05-05 23:12 | 47.64099 | -79.35280 | 33695 ft | 404 kts | 298° |
| 2026-05-05 23:13 | 47.67373 | -79.42059 | 33705 ft | 404 kts | 298° |
| 2026-05-05 23:13 | 47.70644 | -79.48848 | 33732 ft | 405 kts | 298° |
| 2026-05-05 23:14 | 47.73917 | -79.55661 | 33727 ft | 405 kts | 298° |
| 2026-05-05 23:14 | 47.77160 | -79.62441 | 33737 ft | 406 kts | 298° |
| 2026-05-05 23:15 | 47.80434 | -79.69297 | 33724 ft | 407 kts | 298° |
| 2026-05-05 23:15 | 47.83710 | -79.76164 | 33716 ft | 407 kts | 298° |
| 2026-05-05 23:16 | 47.86991 | -79.83043 | 33722 ft | 407 kts | 298° |
| 2026-05-05 23:16 | 47.90239 | -79.89884 | 33716 ft | 407 kts | 298° |
| 2026-05-05 23:17 | 47.93506 | -79.96786 | 33702 ft | 407 kts | 298° |
| 2026-05-05 23:17 | 47.96772 | -80.03690 | 33694 ft | 407 kts | 298° |
| 2026-05-05 23:18 | 48.00024 | -80.10610 | 33702 ft | 407 kts | 298° |
| 2026-05-05 23:18 | 48.03274 | -80.17550 | 33729 ft | 408 kts | 298° |
| 2026-05-05 23:19 | 48.06507 | -80.24454 | 33729 ft | 409 kts | 299° |
| 2026-05-05 23:19 | 48.09770 | -80.31424 | 33714 ft | 409 kts | 299° |
| 2026-05-05 23:20 | 48.13022 | -80.38403 | 33708 ft | 409 kts | 299° |
| 2026-05-05 23:20 | 48.16270 | -80.45395 | 33706 ft | 409 kts | 299° |
| 2026-05-05 23:21 | 48.19498 | -80.52346 | 33700 ft | 409 kts | 299° |
| 2026-05-05 23:21 | 48.22737 | -80.59352 | 33712 ft | 409 kts | 299° |
| 2026-05-05 23:22 | 48.25975 | -80.66374 | 33709 ft | 409 kts | 299° |
| 2026-05-05 23:22 | 48.29212 | -80.73400 | 33733 ft | 410 kts | 299° |
| 2026-05-05 23:23 | 48.32454 | -80.80460 | 33712 ft | 411 kts | 299° |
| 2026-05-05 23:23 | 48.35673 | -80.87481 | 33710 ft | 411 kts | 299° |
| 2026-05-05 23:24 | 48.38912 | -80.94575 | 33704 ft | 411 kts | 299° |
| 2026-05-05 23:24 | 48.42139 | -81.01677 | 33704 ft | 411 kts | 299° |
| 2026-05-05 23:25 | 48.45366 | -81.08797 | 33706 ft | 411 kts | 299° |
| 2026-05-05 23:25 | 48.48567 | -81.15868 | 33704 ft | 411 kts | 299° |
| 2026-05-05 23:26 | 48.51793 | -81.23002 | 33687 ft | 412 kts | 299° |
| 2026-05-05 23:26 | 48.55014 | -81.30140 | 33691 ft | 412 kts | 299° |
| 2026-05-05 23:27 | 48.58231 | -81.37297 | 33692 ft | 412 kts | 299° |
| 2026-05-05 23:27 | 48.61421 | -81.44405 | 33692 ft | 412 kts | 299° |
| 2026-05-05 23:28 | 48.64626 | -81.51582 | 33697 ft | 412 kts | 299° |
| 2026-05-05 23:28 | 48.67826 | -81.58759 | 33715 ft | 412 kts | 299° |
| 2026-05-05 23:29 | 48.71025 | -81.65948 | 33713 ft | 411 kts | 299° |
| 2026-05-05 23:29 | 48.74194 | -81.73087 | 33717 ft | 411 kts | 299° |
| 2026-05-05 23:30 | 48.77379 | -81.80299 | 33719 ft | 411 kts | 299° |
| 2026-05-05 23:30 | 48.80555 | -81.87517 | 33719 ft | 412 kts | 299° |
| 2026-05-05 23:31 | 48.83745 | -81.94754 | 33706 ft | 413 kts | 299° |
| 2026-05-05 23:31 | 48.86933 | -82.02008 | 33705 ft | 413 kts | 299° |
| 2026-05-05 23:32 | 48.90097 | -82.09239 | 33705 ft | 414 kts | 299° |
| 2026-05-05 23:32 | 48.93276 | -82.16528 | 33698 ft | 414 kts | 299° |
| 2026-05-05 23:33 | 48.96452 | -82.23829 | 33692 ft | 414 kts | 299° |
| 2026-05-05 23:33 | 48.99629 | -82.31145 | 33700 ft | 414 kts | 299° |
| 2026-05-05 23:34 | 49.02777 | -82.38423 | 33693 ft | 414 kts | 299° |
| 2026-05-05 23:34 | 49.05938 | -82.45755 | 33714 ft | 414 kts | 300° |
| 2026-05-05 23:35 | 49.09101 | -82.53097 | 33702 ft | 415 kts | 300° |
| 2026-05-05 23:35 | 49.12270 | -82.60462 | 33699 ft | 415 kts | 299° |
| 2026-05-05 23:36 | 49.15425 | -82.67830 | 33693 ft | 415 kts | 299° |
| 2026-05-05 23:36 | 49.18560 | -82.75168 | 33701 ft | 415 kts | 299° |
| 2026-05-05 23:37 | 49.21703 | -82.82571 | 33690 ft | 415 kts | 299° |
| 2026-05-05 23:37 | 49.24651 | -82.90126 | 33712 ft | 413 kts | 290° |
| 2026-05-05 23:38 | 49.25659 | -82.94236 | 33833 ft | 414 kts | 287° |
| 2026-05-05 23:38 | 49.26650 | -82.98379 | 33945 ft | 416 kts | 288° |
| 2026-05-05 23:38 | 49.27635 | -83.02495 | 34061 ft | 418 kts | 288° |
| 2026-05-05 23:38 | 49.28633 | -83.06679 | 34214 ft | 419 kts | 288° |
| 2026-05-05 23:39 | 49.29630 | -83.10871 | 34384 ft | 419 kts | 287° |
| 2026-05-05 23:39 | 49.30626 | -83.15076 | 34556 ft | 419 kts | 288° |
| 2026-05-05 23:39 | 49.31621 | -83.19277 | 34733 ft | 420 kts | 288° |
| 2026-05-05 23:39 | 49.32615 | -83.23481 | 34910 ft | 420 kts | 287° |
| 2026-05-05 23:40 | 49.33605 | -83.27695 | 35064 ft | 421 kts | 288° |
| 2026-05-05 23:40 | 49.34594 | -83.31925 | 35169 ft | 422 kts | 288° |
| 2026-05-05 23:40 | 49.35582 | -83.36174 | 35299 ft | 423 kts | 288° |
| 2026-05-05 23:40 | 49.36554 | -83.40370 | 35407 ft | 424 kts | 288° |
| 2026-05-05 23:41 | 49.37544 | -83.44636 | 35543 ft | 425 kts | 288° |
| 2026-05-05 23:41 | 49.38536 | -83.48905 | 35675 ft | 425 kts | 288° |
| 2026-05-05 23:41 | 49.40521 | -83.57467 | 35713 ft | 425 kts | 288° |
| 2026-05-05 23:42 | 49.42490 | -83.66027 | 35714 ft | 425 kts | 288° |
| 2026-05-05 23:42 | 49.44459 | -83.74598 | 35705 ft | 425 kts | 288° |
| 2026-05-05 23:43 | 49.46416 | -83.83115 | 35709 ft | 426 kts | 288° |
| 2026-05-05 23:43 | 49.48373 | -83.91716 | 35713 ft | 426 kts | 288° |
| 2026-05-05 23:44 | 49.50323 | -84.00320 | 35715 ft | 426 kts | 288° |
| 2026-05-05 23:44 | 49.52264 | -84.08877 | 35722 ft | 426 kts | 288° |
| 2026-05-05 23:45 | 49.54204 | -84.17495 | 35728 ft | 426 kts | 288° |
| 2026-05-05 23:45 | 49.56139 | -84.26136 | 35721 ft | 427 kts | 288° |
| 2026-05-05 23:46 | 49.58070 | -84.34782 | 35719 ft | 427 kts | 288° |
| 2026-05-05 23:46 | 49.59999 | -84.43446 | 35726 ft | 427 kts | 288° |
| 2026-05-05 23:47 | 49.61910 | -84.52053 | 35741 ft | 427 kts | 288° |
| 2026-05-05 23:47 | 49.63821 | -84.60745 | 35736 ft | 428 kts | 288° |
| 2026-05-05 23:48 | 49.65730 | -84.69442 | 35734 ft | 428 kts | 288° |
| 2026-05-05 23:48 | 49.67633 | -84.78155 | 35731 ft | 428 kts | 288° |
| 2026-05-05 23:49 | 49.69514 | -84.86808 | 35729 ft | 428 kts | 288° |
| 2026-05-05 23:49 | 49.71406 | -84.95544 | 35734 ft | 429 kts | 288° |
| 2026-05-05 23:50 | 49.73297 | -85.04282 | 35735 ft | 429 kts | 288° |
| 2026-05-05 23:50 | 49.75180 | -85.13045 | 35742 ft | 429 kts | 287° |
| 2026-05-05 23:51 | 49.77040 | -85.21748 | 35746 ft | 429 kts | 287° |
| 2026-05-05 23:51 | 49.78912 | -85.30519 | 35739 ft | 429 kts | 287° |
| 2026-05-05 23:52 | 49.80769 | -85.39287 | 35736 ft | 429 kts | 287° |
| 2026-05-05 23:52 | 49.82620 | -85.48066 | 35747 ft | 429 kts | 287° |
| 2026-05-05 23:53 | 49.84459 | -85.56784 | 35743 ft | 429 kts | 287° |
| 2026-05-05 23:53 | 49.86301 | -85.65580 | 35749 ft | 429 kts | 287° |
| 2026-05-05 23:54 | 49.88133 | -85.74376 | 35749 ft | 429 kts | 287° |
| 2026-05-05 23:54 | 49.89969 | -85.83186 | 35751 ft | 429 kts | 287° |
| 2026-05-05 23:55 | 49.91796 | -85.92007 | 35741 ft | 430 kts | 287° |
| 2026-05-05 23:55 | 49.93607 | -86.00796 | 35732 ft | 431 kts | 287° |
| 2026-05-05 23:56 | 49.95420 | -86.09661 | 35745 ft | 431 kts | 287° |
| 2026-05-05 23:56 | 49.97228 | -86.18543 | 35747 ft | 432 kts | 287° |
| 2026-05-05 23:57 | 49.99034 | -86.27446 | 35755 ft | 432 kts | 287° |
| 2026-05-05 23:57 | 50.00822 | -86.36298 | 35753 ft | 432 kts | 287° |
| 2026-05-05 23:58 | 50.02616 | -86.45217 | 35754 ft | 433 kts | 287° |
| 2026-05-05 23:58 | 50.04405 | -86.54152 | 35764 ft | 433 kts | 287° |
| 2026-05-05 23:59 | 50.06196 | -86.63102 | 35765 ft | 433 kts | 287° |
| 2026-05-05 23:59 | 50.07963 | -86.72004 | 35769 ft | 433 kts | 287° |
| 2026-05-06 00:00 | 50.09732 | -86.80973 | 35765 ft | 433 kts | 287° |
| 2026-05-06 00:00 | 50.11492 | -86.89953 | 35768 ft | 434 kts | 287° |
| 2026-05-06 00:01 | 50.13257 | -86.98948 | 35770 ft | 434 kts | 287° |
| 2026-05-06 00:01 | 50.15009 | -87.07951 | 35779 ft | 434 kts | 287° |
| 2026-05-06 00:02 | 50.16747 | -87.16910 | 35786 ft | 435 kts | 287° |
| 2026-05-06 00:02 | 50.18491 | -87.25939 | 35787 ft | 435 kts | 287° |
| 2026-05-06 00:03 | 50.20229 | -87.34996 | 35786 ft | 436 kts | 287° |
| 2026-05-06 00:03 | 50.21960 | -87.44058 | 35783 ft | 436 kts | 287° |
| 2026-05-06 00:04 | 50.23675 | -87.53076 | 35785 ft | 436 kts | 287° |
| 2026-05-06 00:04 | 50.25400 | -87.62158 | 35798 ft | 436 kts | 286° |
| 2026-05-06 00:05 | 50.27970 | -87.75803 | 35792 ft | 436 kts | 286° |
| 2026-05-06 00:06 | 50.29668 | -87.84898 | 35796 ft | 436 kts | 286° |
| 2026-05-06 00:06 | 50.31359 | -87.93934 | 35793 ft | 436 kts | 286° |
| 2026-05-06 00:07 | 50.33050 | -88.03036 | 35809 ft | 436 kts | 286° |
| 2026-05-06 00:07 | 50.34729 | -88.12154 | 35806 ft | 436 kts | 286° |
| 2026-05-06 00:08 | 50.36398 | -88.21276 | 35804 ft | 436 kts | 286° |
| 2026-05-06 00:08 | 50.38062 | -88.30422 | 35809 ft | 436 kts | 286° |
| 2026-05-06 00:09 | 50.39709 | -88.39481 | 35811 ft | 436 kts | 285° |
| 2026-05-06 00:09 | 50.41362 | -88.48631 | 35802 ft | 436 kts | 286° |
| 2026-05-06 00:10 | 50.43009 | -88.57795 | 35791 ft | 437 kts | 286° |
| 2026-05-06 00:10 | 50.44639 | -88.66919 | 35796 ft | 437 kts | 286° |
| 2026-05-06 00:11 | 50.46272 | -88.76101 | 35788 ft | 437 kts | 285° |
| 2026-05-06 00:11 | 50.47904 | -88.85299 | 35792 ft | 437 kts | 285° |
| 2026-05-06 00:12 | 50.49526 | -88.94500 | 35802 ft | 436 kts | 285° |
| 2026-05-06 00:12 | 50.51139 | -89.03685 | 35793 ft | 437 kts | 285° |
| 2026-05-06 00:13 | 50.52737 | -89.12836 | 35815 ft | 437 kts | 285° |
| 2026-05-06 00:13 | 50.54332 | -89.22053 | 35820 ft | 437 kts | 285° |
| 2026-05-06 00:14 | 50.55915 | -89.31273 | 35833 ft | 436 kts | 285° |
| 2026-05-06 00:14 | 50.57495 | -89.40460 | 35839 ft | 435 kts | 285° |
| 2026-05-06 00:15 | 50.59057 | -89.49584 | 35832 ft | 435 kts | 285° |
| 2026-05-06 00:15 | 50.60623 | -89.58795 | 35825 ft | 437 kts | 285° |
| 2026-05-06 00:16 | 50.62184 | -89.68038 | 35842 ft | 437 kts | 285° |
| 2026-05-06 00:16 | 50.63739 | -89.77286 | 35844 ft | 436 kts | 285° |
| 2026-05-06 00:17 | 50.65278 | -89.86475 | 35836 ft | 438 kts | 285° |
| 2026-05-06 00:17 | 50.66815 | -89.95790 | 35819 ft | 440 kts | 285° |
| 2026-05-06 00:18 | 50.68344 | -90.05121 | 35841 ft | 440 kts | 285° |
| 2026-05-06 00:18 | 50.69885 | -90.14446 | 35854 ft | 439 kts | 285° |
| 2026-05-06 00:19 | 50.71420 | -90.23771 | 35859 ft | 439 kts | 284° |
| 2026-05-06 00:19 | 50.72931 | -90.33051 | 35870 ft | 439 kts | 285° |
| 2026-05-06 00:20 | 50.74437 | -90.42379 | 35877 ft | 439 kts | 284° |
| 2026-05-06 00:20 | 50.75942 | -90.51718 | 35877 ft | 439 kts | 284° |
| 2026-05-06 00:21 | 50.77431 | -90.61070 | 35870 ft | 439 kts | 284° |
| 2026-05-06 00:21 | 50.78913 | -90.70386 | 35870 ft | 440 kts | 284° |
| 2026-05-06 00:22 | 50.80396 | -90.79776 | 35882 ft | 441 kts | 284° |
| 2026-05-06 00:22 | 50.81876 | -90.89203 | 35875 ft | 442 kts | 284° |
| 2026-05-06 00:23 | 50.83351 | -90.98641 | 35871 ft | 444 kts | 284° |
| 2026-05-06 00:23 | 50.84824 | -91.08120 | 35894 ft | 443 kts | 284° |
| 2026-05-06 00:24 | 50.86278 | -91.17518 | 35903 ft | 443 kts | 284° |
| 2026-05-06 00:24 | 50.87731 | -91.26997 | 35912 ft | 443 kts | 284° |
| 2026-05-06 00:25 | 50.89174 | -91.36463 | 35918 ft | 442 kts | 284° |
| 2026-05-06 00:25 | 50.90611 | -91.45940 | 35906 ft | 442 kts | 284° |
| 2026-05-06 00:26 | 50.92038 | -91.55356 | 35901 ft | 443 kts | 284° |
| 2026-05-06 00:26 | 50.93468 | -91.64860 | 35906 ft | 443 kts | 284° |
| 2026-05-06 00:27 | 50.94889 | -91.74378 | 35910 ft | 444 kts | 284° |
| 2026-05-06 00:27 | 50.96302 | -91.83905 | 35903 ft | 445 kts | 284° |
| 2026-05-06 00:28 | 50.97708 | -91.93460 | 35918 ft | 444 kts | 284° |
| 2026-05-06 00:28 | 50.99088 | -92.02944 | 35917 ft | 444 kts | 284° |